Time;durP1;ratioP1;P1;durP2;ratioP2;P2;SDS_P1;SDS_P2;PMS_P1;PMS_P2;Temp;Humidity;BMP_temperature;BMP_pressure;BME280_temperature;BME280_humidity;BME280_pressure;Samples;Min_cycle;Max_cycle;Signal;HPM_P1;HPM_P2
2023/09/15 00:00:43;;;;;;;8.35;5.40;;;10.00;99.90;;;8.88;100.00;101974.09;4962240;28;20590;-77
2023/09/15 00:03:09;;;;;;;4.82;3.30;;;10.00;99.90;;;8.88;100.00;101972.34;4963316;28;20038;-77
2023/09/15 00:05:35;;;;;;;5.00;2.90;;;10.10;99.90;;;8.88;100.00;101967.09;4951826;28;20062;-77
2023/09/15 00:08:04;;;;;;;5.47;3.05;;;10.10;99.90;;;8.89;100.00;101971.44;4946795;28;20031;-78
2023/09/15 00:10:31;;;;;;;5.63;3.33;;;10.10;99.90;;;8.88;100.00;101972.34;4960601;28;20034;-76
2023/09/15 00:13:00;;;;;;;13.73;4.88;;;10.00;99.90;;;8.90;100.00;101967.03;4969226;28;20058;-77
2023/09/15 00:15:27;;;;;;;10.43;5.88;;;10.10;99.90;;;8.91;100.00;101961.75;4947193;28;20034;-79
2023/09/15 00:17:55;;;;;;;10.88;6.82;;;10.10;99.90;;;8.95;100.00;101959.94;4962382;28;20050;-78
2023/09/15 00:20:24;;;;;;;11.27;6.70;;;10.10;99.90;;;8.96;100.00;101956.41;4962846;28;20090;-78
2023/09/15 00:22:53;;;;;;;13.50;6.53;;;10.10;99.90;;;8.97;100.00;101960.78;4962362;28;20038;-76
2023/09/15 00:25:25;;;;;;;13.73;6.10;;;10.10;99.90;;;8.98;100.00;101967.75;4963351;28;20074;-77
2023/09/15 00:27:54;;;;;;;12.63;6.20;;;10.10;99.90;;;8.94;100.00;101964.34;4962079;28;20452;-77
2023/09/15 00:30:22;;;;;;;9.23;5.97;;;10.10;99.90;;;8.94;100.00;101966.06;4964174;28;20031;-77
2023/09/15 00:32:49;;;;;;;13.98;5.88;;;10.10;99.90;;;8.92;100.00;101967.88;4962320;28;20043;-77
2023/09/15 00:35:21;;;;;;;13.23;7.10;;;10.10;99.90;;;8.91;100.00;101966.16;4961847;28;20031;-79
2023/09/15 00:37:49;;;;;;;10.45;5.50;;;10.10;99.90;;;8.89;100.00;101979.31;4961931;28;20023;-77
2023/09/15 00:40:19;;;;;;;11.20;5.82;;;10.10;99.90;;;8.87;100.00;101973.22;4959730;28;20110;-78
2023/09/15 00:42:50;;;;;;;9.50;5.93;;;10.00;99.90;;;8.83;100.00;101977.69;4965435;28;20065;-78
2023/09/15 00:45:22;;;;;;;10.48;6.03;;;10.00;99.90;;;8.81;100.00;101970.69;4981305;28;20038;-78
2023/09/15 00:47:56;;;;;;;9.45;6.07;;;10.00;99.90;;;8.77;100.00;101969.91;4965805;28;20070;-79
2023/09/15 00:50:26;;;;;;;4.95;3.45;;;10.00;99.90;;;8.76;100.00;101972.56;4950824;28;20077;-77
2023/09/15 00:52:58;;;;;;;6.82;4.00;;;9.90;99.90;;;8.72;100.00;101969.13;4967930;28;20035;-78
2023/09/15 00:55:25;;;;;;;6.22;3.05;;;9.90;99.90;;;8.70;100.00;101973.53;4965818;28;20113;-77
2023/09/15 00:57:54;;;;;;;6.00;3.05;;;9.90;99.90;;;8.68;100.00;101967.44;4949800;28;20050;-77
2023/09/15 01:00:28;;;;;;;6.68;3.03;;;9.90;99.90;;;8.67;100.00;101973.59;4968515;28;20133;-77
2023/09/15 01:02:53;;;;;;;4.15;2.70;;;9.90;99.90;;;8.67;100.00;101967.50;4963789;28;20110;-79
2023/09/15 01:05:25;;;;;;;10.10;4.68;;;9.80;99.90;;;8.66;100.00;101971.91;4965267;28;20035;-77
2023/09/15 01:07:53;;;;;;;7.93;4.35;;;9.80;99.90;;;8.63;100.00;101971.94;4967581;28;20047;-78
2023/09/15 01:10:21;;;;;;;10.00;5.00;;;9.80;99.90;;;8.60;100.00;101979.88;4948794;28;20027;-77
2023/09/15 01:12:49;;;;;;;8.55;4.88;;;9.80;99.90;;;8.58;100.00;101971.16;4955062;28;20047;-77
2023/09/15 01:15:17;;;;;;;7.30;4.78;;;9.80;99.90;;;8.55;100.00;101973.81;4955193;28;20027;-77
2023/09/15 01:18:07;;;;;;;7.88;5.05;;;9.70;99.90;;;8.53;100.00;101975.59;4955752;28;20602;-78
2023/09/15 01:21:46;;;;;;;7.75;4.80;;;9.70;99.90;;;8.49;100.00;101976.56;4963982;28;20122;-78
2023/09/15 01:25:01;;;;;;;10.43;5.97;;;9.60;99.90;;;8.47;100.00;101981.00;4880591;29;20091;-78
2023/09/15 01:28:08;;;;;;;10.93;6.40;;;9.70;99.90;;;8.48;100.00;101980.94;4881120;29;20144;-77
2023/09/15 01:30:35;;;;;;;11.70;7.35;;;9.70;99.90;;;8.52;100.00;101969.50;4866808;29;20041;-77
2023/09/15 01:33:02;;;;;;;9.68;5.43;;;9.70;99.90;;;8.59;100.00;101973.72;4865949;29;20033;-77
2023/09/15 01:35:29;;;;;;;9.95;4.63;;;9.80;99.90;;;8.66;100.00;101982.41;4880389;29;20039;-77
2023/09/15 01:37:54;;;;;;;7.45;4.38;;;9.80;99.90;;;8.75;100.00;101990.09;4879927;29;20558;-77
2023/09/15 01:40:20;;;;;;;5.88;4.38;;;10.00;99.90;;;8.86;100.00;101986.41;4889222;29;20036;-77
2023/09/15 01:42:53;;;;;;;14.60;5.25;;;10.00;99.90;;;9.00;100.00;101987.84;4874257;29;20029;-77
2023/09/15 01:45:19;;;;;;;11.90;6.85;;;10.20;99.90;;;9.14;100.00;101989.34;4879559;29;20044;-76
2023/09/15 01:47:50;;;;;;;9.07;5.88;;;10.30;99.90;;;9.28;100.00;101983.78;4897246;29;20040;-78
2023/09/15 01:50:16;;;;;;;13.15;5.45;;;10.40;99.90;;;9.40;100.00;101988.78;4869458;29;20131;-77
2023/09/15 01:52:44;;;;;;;10.32;4.60;;;10.50;99.90;;;9.52;100.00;101985.88;4863913;29;20084;-78
2023/09/15 01:55:11;;;;;;;10.30;5.65;;;10.60;99.90;;;9.63;100.00;101991.78;4874046;29;20056;-77
2023/09/15 01:57:37;;;;;;;10.38;5.85;;;10.70;99.90;;;9.72;100.00;101988.09;4922775;28;20079;-77
2023/09/15 02:00:04;;;;;;;13.65;7.13;;;10.80;99.90;;;9.78;100.00;101987.94;4946729;28;20061;-78
2023/09/15 02:02:32;;;;;;;12.10;7.82;;;10.90;99.90;;;9.80;100.00;101983.47;4963805;28;20490;-77
2023/09/15 02:04:58;;;;;;;21.92;8.15;;;10.90;99.90;;;9.86;100.00;101991.25;4962164;28;20031;-77
2023/09/15 02:07:23;;;;;;;12.02;7.43;;;11.00;99.90;;;9.96;100.00;101991.91;4960482;28;20070;-77
2023/09/15 02:09:49;;;;;;;10.82;6.97;;;11.10;99.90;;;10.01;100.00;101992.66;4948966;28;20039;-77
2023/09/15 02:12:15;;;;;;;14.80;7.85;;;11.20;99.90;;;10.04;100.00;101989.97;4968087;28;20604;-78
2023/09/15 02:14:41;;;;;;;12.68;6.80;;;11.20;99.90;;;10.12;100.00;101989.75;4965417;28;20043;-77
2023/09/15 02:17:07;;;;;;;13.57;7.25;;;11.20;99.90;;;10.16;100.00;101998.44;4964792;28;20082;-77
2023/09/15 02:19:37;;;;;;;12.60;6.53;;;11.30;99.90;;;10.19;100.00;101998.34;4964087;28;20035;-79
2023/09/15 02:22:03;;;;;;;7.78;5.68;;;11.30;99.90;;;10.16;100.00;101998.44;4963711;28;20061;-77
2023/09/15 02:24:30;;;;;;;7.70;4.93;;;11.30;99.90;;;10.12;100.00;101992.38;4962794;28;20452;-78
2023/09/15 02:26:56;;;;;;;5.65;4.10;;;11.30;99.90;;;10.11;100.00;101995.94;4965888;28;20066;-77
2023/09/15 02:29:22;;;;;;;6.07;3.33;;;11.30;99.90;;;10.09;100.00;101997.75;4964554;28;20027;-77
2023/09/15 02:31:54;;;;;;;5.53;3.33;;;11.20;99.90;;;10.06;100.00;101990.78;4955241;28;20031;-77
2023/09/15 02:34:19;;;;;;;5.03;3.42;;;11.20;99.90;;;10.02;100.00;101994.41;4946506;28;20263;-77
2023/09/15 02:36:45;;;;;;;15.75;4.13;;;11.10;99.90;;;9.95;100.00;101991.94;4963470;28;20023;-78
2023/09/15 02:39:11;;;;;;;12.07;4.90;;;11.10;99.90;;;9.92;100.00;101990.25;4946973;28;20043;-77
2023/09/15 02:41:37;;;;;;;13.55;5.00;;;11.00;99.90;;;9.85;100.00;101989.53;4952859;23;20040;-79
2023/09/15 02:44:10;;;;;;;12.02;4.10;;;11.00;99.90;;;9.85;100.00;101997.41;4912226;29;20051;-79
2023/09/15 02:46:37;;;;;;;9.85;4.40;;;11.00;99.90;;;9.87;100.00;101994.75;4913347;29;20095;-79
2023/09/15 02:49:03;;;;;;;7.85;4.15;;;11.00;99.90;;;9.86;100.00;101990.38;4897856;29;20028;-78
2023/09/15 02:51:29;;;;;;;6.95;3.78;;;11.00;99.90;;;9.86;100.00;101996.50;4910827;29;20060;-79
2023/09/15 02:53:54;;;;;;;6.28;3.45;;;11.00;99.90;;;9.87;100.00;101992.13;4914741;29;20039;-78
2023/09/15 02:56:25;;;;;;;10.00;3.05;;;11.00;99.90;;;9.86;100.00;101996.50;4915421;29;20021;-78
2023/09/15 02:58:51;;;;;;;10.10;4.10;;;11.00;99.90;;;9.86;100.00;101990.38;4930353;29;20038;-78
2023/09/15 03:01:17;;;;;;;9.80;4.95;;;11.00;99.90;;;9.84;100.00;101992.19;4897826;29;20028;-78
2023/09/15 03:03:43;;;;;;;12.57;5.32;;;10.90;99.90;;;9.80;100.00;101983.47;4914994;29;20055;-78
2023/09/15 03:06:09;;;;;;;7.68;3.30;;;10.90;99.90;;;9.75;100.00;101985.38;4931131;29;20596;-79
2023/09/15 03:08:36;;;;;;;7.75;3.53;;;10.90;99.90;;;9.72;100.00;101981.94;4929289;29;20060;-78
2023/09/15 03:11:04;;;;;;;6.70;2.97;;;10.80;99.90;;;9.65;100.00;101982.09;4912163;29;20506;-78
2023/09/15 03:13:30;;;;;;;9.20;4.50;;;10.80;99.90;;;9.61;100.00;101985.69;4914233;29;20036;-78
2023/09/15 03:16:06;;;;;;;10.43;4.97;;;10.80;99.90;;;9.58;100.00;101985.75;4915774;29;20418;-78
2023/09/15 03:18:36;;;;;;;8.95;5.82;;;10.70;99.90;;;9.54;100.00;101984.09;4915739;29;20112;-78
2023/09/15 03:21:03;;;;;;;15.15;6.00;;;10.70;99.90;;;9.54;100.00;101980.59;4913013;29;20028;-78
2023/09/15 03:23:29;;;;;;;10.70;6.10;;;10.70;99.90;;;9.53;100.00;101977.09;4913323;29;20032;-78
2023/09/15 03:26:02;;;;;;;9.70;6.15;;;10.70;99.90;;;9.55;100.00;101984.97;4929720;29;20043;-79
2023/09/15 03:28:31;;;;;;;8.07;4.88;;;10.70;99.90;;;9.55;100.00;101979.72;4928195;29;20028;-78
2023/09/15 03:30:56;;;;;;;5.85;4.07;;;10.70;99.90;;;9.55;100.00;101975.31;4915174;29;20032;-78
2023/09/15 03:33:30;;;;;;;13.05;5.68;;;10.70;99.90;;;9.55;100.00;101977.09;4909963;29;20570;-78
2023/09/15 03:35:57;;;;;;;19.67;7.20;;;10.70;99.90;;;9.55;100.00;101975.31;4929062;29;20035;-78
2023/09/15 03:38:23;;;;;;;13.75;8.18;;;10.70;99.90;;;9.55;100.00;101983.19;4929800;29;20414;-78
2023/09/15 03:40:49;;;;;;;14.07;6.38;;;10.70;99.90;;;9.57;100.00;101973.50;4914266;29;20119;-78
2023/09/15 03:43:17;;;;;;;13.73;7.18;;;10.70;99.90;;;9.57;100.00;101970.88;4914288;29;20454;-78
2023/09/15 03:45:48;;;;;;;15.40;7.35;;;10.70;99.90;;;9.55;100.00;101971.81;4912834;29;20048;-78
2023/09/15 03:48:15;;;;;;;15.65;8.57;;;10.70;99.90;;;9.50;100.00;101968.41;4928041;29;20032;-78
2023/09/15 03:50:41;;;;;;;23.30;10.20;;;10.60;99.90;;;9.44;100.00;101977.31;4928883;29;20487;-78
2023/09/15 03:53:11;;;;;;;19.27;10.05;;;10.60;99.90;;;9.37;100.00;101966.06;4899365;29;20107;-78
2023/09/15 03:55:37;;;;;;;17.33;7.35;;;10.60;99.90;;;9.31;100.00;101967.94;4913821;29;20036;-78
2023/09/15 03:58:04;;;;;;;10.32;5.18;;;10.50;99.90;;;9.29;100.00;101964.47;4912492;29;20028;-79
2023/09/15 04:00:30;;;;;;;8.70;5.28;;;10.50;99.90;;;9.27;100.00;101966.31;4927139;29;20035;-77
2023/09/15 04:02:56;;;;;;;6.45;4.45;;;10.50;99.90;;;9.24;100.00;101975.97;4929638;29;20634;-79
2023/09/15 04:05:22;;;;;;;6.47;3.92;;;10.50;99.90;;;9.24;100.00;101970.72;4927839;29;20694;-78
2023/09/15 04:07:52;;;;;;;7.35;3.35;;;10.40;99.90;;;9.24;100.00;101973.34;4914706;29;20036;-78
2023/09/15 04:10:18;;;;;;;10.32;3.88;;;10.40;99.90;;;9.23;100.00;101974.22;4927249;29;20103;-78
2023/09/15 04:12:44;;;;;;;11.63;3.50;;;10.40;99.90;;;9.21;100.00;101972.53;4913270;29;20032;-78
2023/09/15 04:15:11;;;;;;;4.82;3.25;;;10.30;99.90;;;9.15;100.00;101970.91;4912853;29;20032;-78
2023/09/15 04:17:38;;;;;;;5.03;3.03;;;10.30;99.90;;;9.13;100.00;101974.47;4913110;29;20043;-78
2023/09/15 04:20:10;;;;;;;7.53;3.13;;;10.30;99.90;;;9.08;100.00;101974.56;4910776;29;20079;-78
2023/09/15 04:22:38;;;;;;;7.13;2.88;;;10.20;99.90;;;9.04;100.00;101988.66;4929079;29;20043;-78
2023/09/15 04:25:06;;;;;;;4.07;2.65;;;10.20;99.90;;;9.01;100.00;101983.47;4912352;29;20457;-78
2023/09/15 04:27:41;;;;;;;3.67;2.15;;;10.20;99.90;;;8.98;100.00;101989.63;4928503;29;20188;-78
2023/09/15 04:30:07;;;;;;;7.13;2.92;;;10.10;99.90;;;8.95;100.00;101986.22;4929262;29;20083;-78
2023/09/15 04:32:34;;;;;;;5.18;1.67;;;10.10;99.90;;;8.93;100.00;101982.75;4911275;29;20498;-78
2023/09/15 04:35:08;;;;;;;5.00;1.63;;;10.10;99.90;;;8.90;100.00;101985.41;4912797;29;20176;-78
2023/09/15 04:37:34;;;;;;;8.77;4.35;;;10.00;99.90;;;8.89;100.00;101987.19;4927813;29;20043;-78
2023/09/15 04:40:01;;;;;;;8.25;3.53;;;10.00;99.90;;;8.90;100.00;101980.16;4913272;29;20036;-78
2023/09/15 04:42:34;;;;;;;4.38;2.78;;;10.00;99.90;;;8.90;100.00;101982.78;4914180;29;20039;-78
2023/09/15 04:45:02;;;;;;;3.28;2.55;;;10.00;99.90;;;8.91;100.00;101982.78;4913488;29;20067;-78
2023/09/15 04:47:36;;;;;;;3.30;2.40;;;10.00;99.90;;;8.92;100.00;101989.78;4914166;29;20024;-78
2023/09/15 04:50:02;;;;;;;7.63;2.78;;;10.00;99.90;;;8.93;100.00;101988.00;4926638;29;20592;-78
2023/09/15 04:52:27;;;;;;;5.32;3.30;;;10.00;99.90;;;8.95;100.00;101988.84;4929058;29;20032;-78
2023/09/15 04:54:55;;;;;;;8.80;3.60;;;10.00;99.90;;;8.96;100.00;101995.81;4929440;29;20033;-78
2023/09/15 04:57:21;;;;;;;7.72;4.53;;;10.10;99.90;;;8.98;100.00;101991.41;4927493;29;20413;-78
2023/09/15 04:59:53;;;;;;;5.95;2.65;;;10.10;99.90;;;9.01;100.00;102001.88;4927936;29;20095;-78
2023/09/15 05:02:23;;;;;;;8.18;2.42;;;10.10;99.90;;;9.04;100.00;102002.66;4929502;29;20490;-78
2023/09/15 05:04:51;;;;;;;2.25;1.83;;;10.10;99.90;;;9.08;100.00;101999.97;4929294;29;20371;-78
2023/09/15 05:07:20;;;;;;;4.30;2.10;;;10.20;99.90;;;9.12;100.00;102007.75;4912335;29;20039;-78
2023/09/15 05:09:46;;;;;;;9.88;2.70;;;10.20;99.90;;;9.16;100.00;102006.81;4922405;29;20051;-78
2023/09/15 05:12:15;;;;;;;6.93;3.63;;;10.20;99.90;;;9.21;100.00;102004.94;4929742;29;20039;-78
2023/09/15 05:14:41;;;;;;;5.07;3.63;;;10.20;99.90;;;9.29;100.00;102003.91;4929382;29;20140;-78
2023/09/15 05:17:10;;;;;;;11.68;4.07;;;10.30;99.90;;;9.36;100.00;102005.53;4928033;29;20044;-78
2023/09/15 05:19:37;;;;;;;20.98;4.35;;;10.40;99.90;;;9.49;100.00;102007.00;4911498;29;20501;-78
2023/09/15 05:22:03;;;;;;;19.00;4.45;;;10.50;99.90;;;9.57;100.00;102020.84;4910356;29;20067;-78
2023/09/15 05:24:29;;;;;;;17.08;4.30;;;10.50;99.90;;;9.61;100.00;102014.63;4929426;29;20036;-78
2023/09/15 05:26:55;;;;;;;31.45;4.70;;;10.60;99.90;;;9.71;100.00;102011.78;4928308;29;20032;-78
2023/09/15 05:29:20;;;;;;;27.45;5.53;;;10.70;99.90;;;9.78;100.00;102014.25;4916185;29;20036;-78
2023/09/15 05:31:46;;;;;;;15.02;4.95;;;10.70;99.90;;;9.86;100.00;102011.44;4930535;29;20040;-78
2023/09/15 05:34:17;;;;;;;16.25;5.43;;;10.80;99.90;;;9.96;100.00;102023.47;4910420;29;20043;-78
2023/09/15 05:36:43;;;;;;;15.07;4.78;;;10.90;99.90;;;10.03;100.00;102019.78;4916828;29;20062;-78
2023/09/15 05:39:08;;;;;;;16.55;4.30;;;11.00;99.90;;;10.54;100.00;102026.50;4931665;29;20909;-78
2023/09/15 05:41:34;;;;;;;19.63;4.20;;;11.20;99.90;;;11.21;100.00;102034.34;4930510;29;20469;-78
2023/09/15 05:44:00;;;;;;;9.00;4.10;;;11.50;99.90;;;11.57;100.00;102028.88;4930530;29;20047;-78
2023/09/15 05:46:26;;;;;;;11.32;3.17;;;11.70;99.90;;;11.63;100.00;102033.13;4932624;29;20036;-78
2023/09/15 05:48:56;;;;;;;8.07;3.33;;;11.90;99.90;;;11.74;100.00;102035.44;4915845;29;20028;-78
2023/09/15 05:51:22;;;;;;;12.75;3.10;;;12.10;99.90;;;11.83;100.00;102032.50;4931900;29;20024;-78
2023/09/15 05:53:47;;;;;;;8.82;3.38;;;11.90;99.90;;;11.93;99.45;102039.25;4915725;29;20110;-78
2023/09/15 05:56:13;;;;;;;7.85;2.85;;;12.40;99.90;;;12.58;97.29;102048.59;4932705;29;20037;-78
2023/09/15 05:58:39;;;;;;;10.65;2.88;;;12.60;99.90;;;13.09;94.31;102046.81;4917163;29;20068;-78
2023/09/15 06:01:06;;;;;;;9.25;3.03;;;12.80;99.90;;;12.70;93.06;102047.31;4932674;29;20490;-78
2023/09/15 06:03:37;;;;;;;12.48;3.58;;;13.00;99.90;;;12.55;94.00;102045.16;4900386;29;20032;-79
2023/09/15 06:06:02;;;;;;;5.95;3.08;;;13.00;99.90;;;12.40;95.60;102038.66;4912009;29;20044;-78
2023/09/15 06:08:28;;;;;;;11.73;3.28;;;13.00;99.90;;;12.39;97.78;102039.56;4930698;29;20024;-79
2023/09/15 06:10:54;;;;;;;8.98;2.80;;;13.20;99.90;;;13.87;94.88;102045.69;4915888;29;21145;-80
2023/09/15 06:13:20;;;;;;;6.43;2.65;;;13.40;99.90;;;13.57;93.46;102042.44;4931134;29;20107;-78
2023/09/15 06:15:45;;;;;;;11.52;3.15;;;13.70;99.90;;;14.72;90.74;102051.06;4915184;29;20034;-78
2023/09/15 06:18:16;;;;;;;7.95;3.22;;;14.20;99.90;;;14.93;86.64;102047.47;4930485;29;20108;-78
2023/09/15 06:20:43;;;;;;;11.85;2.63;;;14.50;99.90;;;15.27;85.30;102051.28;4928960;29;20096;-79
2023/09/15 06:23:09;;;;;;;5.10;2.60;;;14.80;99.90;;;15.92;83.21;102065.09;4916838;29;20178;-78
2023/09/15 06:25:35;;;;;;;5.35;2.58;;;15.10;99.90;;;15.44;82.69;102052.28;4915461;29;20032;-78
2023/09/15 06:28:01;;;;;;;5.72;2.97;;;15.40;99.90;;;16.07;82.42;102052.88;4913943;29;20115;-78
2023/09/15 06:30:30;;;;;;;9.32;3.58;;;15.80;99.90;;;18.19;76.43;102079.00;4927950;29;20509;-78
2023/09/15 06:32:56;;;;;;;5.65;3.55;;;16.50;99.90;;;18.12;74.16;102071.41;4912570;29;20028;-79
2023/09/15 06:35:23;;;;;;;8.23;3.63;;;17.00;99.90;;;18.20;73.42;102072.69;4929451;29;20028;-78
2023/09/15 06:37:48;;;;;;;7.43;3.85;;;17.30;99.90;;;18.01;74.27;102072.91;4914331;29;20032;-79
2023/09/15 06:40:14;;;;;;;5.82;3.22;;;17.40;99.90;;;18.32;73.76;102076.47;4930228;29;20071;-79
2023/09/15 06:42:40;;;;;;;8.30;3.45;;;17.90;99.90;;;20.41;69.51;102103.66;4914040;29;20044;-76
2023/09/15 06:45:09;;;;;;;7.95;3.28;;;18.90;99.90;;;23.63;61.16;102133.94;4912404;29;20045;-77
2023/09/15 06:47:36;;;;;;;8.57;3.15;;;20.30;99.90;;;25.07;56.03;102148.13;4910778;29;20029;-77
2023/09/15 06:50:03;;;;;;;7.03;3.10;;;21.70;99.90;;;27.14;52.32;102169.97;4928617;29;20769;-78
2023/09/15 06:52:30;;;;;;;10.85;3.75;;;23.00;99.90;;;27.61;50.88;102188.13;4925691;29;20036;-77
2023/09/15 06:54:56;;;;;;;6.82;3.90;;;24.20;99.90;;;28.57;49.17;102199.44;4911150;29;20383;-77
2023/09/15 06:57:24;;;;;;;10.00;4.75;;;25.40;99.90;;;30.03;46.41;102214.22;4927811;29;21062;-77
2023/09/15 06:59:53;;;;;;;10.05;5.55;;;26.50;99.90;;;30.14;44.98;102223.94;4912824;29;20050;-77
2023/09/15 07:02:19;;;;;;;8.98;5.75;;;27.00;99.90;;;30.03;45.04;102225.09;4926752;29;20829;-78
2023/09/15 07:04:45;;;;;;;7.60;5.35;;;27.50;99.90;;;30.21;44.72;102235.00;4927726;29;20490;-77
2023/09/15 07:07:10;;;;;;;8.90;5.05;;;28.00;99.90;;;30.41;43.98;102244.63;4909639;29;20119;-77
2023/09/15 07:09:36;;;;;;;7.13;4.35;;;28.40;99.80;;;30.34;43.68;102242.72;4909242;29;20646;-77
2023/09/15 07:12:07;;;;;;;11.10;4.25;;;28.50;98.80;;;30.28;43.70;102246.94;4928187;29;20032;-77
2023/09/15 07:14:33;;;;;;;8.10;4.35;;;28.80;98.00;;;30.13;43.77;102245.84;4926697;29;20160;-77
2023/09/15 07:16:58;;;;;;;8.70;4.47;;;29.00;98.00;;;30.02;44.07;102250.56;4911255;29;20032;-77
2023/09/15 07:19:24;;;;;;;7.63;4.18;;;29.20;97.70;;;30.16;43.54;102259.09;4910849;29;20038;-77
2023/09/15 07:21:50;;;;;;;9.02;4.28;;;29.30;96.80;;;29.75;44.18;102253.47;4927282;29;20055;-77
2023/09/15 07:24:15;;;;;;;9.60;4.20;;;29.30;95.80;;;29.20;44.57;102250.03;4927678;29;20036;-77
2023/09/15 07:26:41;;;;;;;6.95;3.95;;;29.60;97.30;;;30.33;43.66;102270.91;4927924;29;20036;-77
2023/09/15 07:29:07;;;;;;;8.32;3.83;;;29.90;96.00;;;30.06;43.73;102267.38;4894383;29;20032;-78
2023/09/15 07:31:37;;;;;;;8.15;3.90;;;30.20;96.30;;;30.82;42.85;102280.03;4927403;29;20418;-77
2023/09/15 07:34:04;;;;;;;5.20;3.38;;;30.60;95.70;;;31.02;42.29;102285.19;4927584;29;20023;-77
2023/09/15 07:36:30;;;;;;;9.70;4.38;;;30.50;95.00;;;30.32;43.43;102274.63;4925970;29;20085;-77
2023/09/15 07:38:56;;;;;;;11.23;4.22;;;30.70;95.00;;;30.53;42.80;102288.63;4927002;29;20034;-78
2023/09/15 07:41:21;;;;;;;10.55;4.32;;;30.80;95.70;;;30.50;43.28;102283.53;4912609;29;20036;-77
2023/09/15 07:43:57;;;;;;;6.95;3.60;;;30.90;95.60;;;30.67;43.40;102287.16;4912104;29;20542;-77
2023/09/15 07:46:22;;;;;;;7.53;4.20;;;31.00;94.50;;;30.29;43.71;102283.13;4923592;29;20028;-77
2023/09/15 07:48:48;;;;;;;9.35;4.13;;;31.00;94.80;;;30.33;43.59;102285.34;4910716;29;20148;-77
2023/09/15 07:51:15;;;;;;;7.57;3.75;;;31.40;94.90;;;31.09;42.55;102291.66;4909649;29;20048;-77
2023/09/15 07:53:44;;;;;;;6.95;3.55;;;31.50;93.50;;;30.65;43.40;102291.91;4910477;29;20115;-78
2023/09/15 07:56:10;;;;;;;11.70;4.07;;;31.70;93.50;;;30.77;42.81;102296.00;4909782;29;20043;-78
2023/09/15 07:58:36;;;;;;;7.28;3.72;;;31.70;93.10;;;30.81;42.69;102293.78;4912493;29;20032;-78
2023/09/15 08:01:02;;;;;;;5.95;3.67;;;31.80;93.30;;;30.61;42.94;102288.66;4926711;29;20087;-77
2023/09/15 08:03:27;;;;;;;10.43;4.15;;;31.80;92.90;;;30.42;43.08;102291.66;4925251;29;20036;-78
2023/09/15 08:05:53;;;;;;;7.03;4.20;;;31.70;92.50;;;30.15;43.15;102285.44;4923798;29;20055;-77
2023/09/15 08:08:23;;;;;;;9.38;4.10;;;31.50;92.90;;;29.95;43.38;102279.38;4925091;29;20036;-76
2023/09/15 08:10:49;;;;;;;5.40;3.80;;;31.50;93.10;;;30.24;43.19;102279.00;4923349;29;20648;-77
2023/09/15 08:13:15;;;;;;;6.30;3.85;;;31.60;93.50;;;30.35;43.24;102286.03;4911722;29;20043;-77
2023/09/15 08:15:40;;;;;;;7.40;4.13;;;31.60;92.60;;;29.94;43.44;102269.53;4920917;29;20643;-77
2023/09/15 08:18:06;;;;;;;7.28;4.10;;;31.60;93.20;;;29.83;43.79;102267.09;4909217;29;20044;-76
2023/09/15 08:20:32;;;;;;;6.75;3.78;;;31.00;93.00;;;28.93;45.27;102252.81;4910397;29;20107;-76
2023/09/15 08:22:58;;;;;;;7.05;3.70;;;29.70;94.30;;;27.14;48.95;102215.94;4923643;29;20055;-76
2023/09/15 08:25:29;;;;;;;6.65;3.42;;;29.60;95.10;;;27.89;47.68;102226.06;4907476;29;20085;-76
2023/09/15 08:27:54;;;;;;;5.82;3.50;;;29.60;94.40;;;28.14;46.52;102235.34;4922766;29;20027;-76
2023/09/15 08:30:22;;;;;;;5.93;3.22;;;29.50;94.00;;;27.72;47.13;102219.53;4909703;29;20036;-76
2023/09/15 08:32:48;;;;;;;4.95;3.05;;;29.40;94.00;;;27.52;47.17;102214.19;4909902;29;20029;-75
2023/09/15 08:35:13;;;;;;;8.35;3.10;;;29.00;94.00;;;27.24;48.03;102212.44;4924185;29;20167;-76
2023/09/15 08:37:41;;;;;;;5.97;3.08;;;27.90;94.60;;;25.50;51.00;102182.16;4910464;29;20518;-76
2023/09/15 08:40:08;;;;;;;6.63;2.75;;;28.00;96.00;;;26.36;49.33;102188.88;4872683;29;1035723;-76
2023/09/15 08:42:34;;;;;;;5.63;3.17;;;27.20;94.90;;;26.39;48.76;102193.13;4924765;29;20052;-76
2023/09/15 08:45:04;;;;;;;5.25;2.75;;;27.80;95.70;;;26.47;48.88;102187.06;4925273;29;20040;-76
2023/09/15 08:47:35;;;;;;;6.65;2.47;;;27.00;94.40;;;24.53;50.97;102166.13;4923723;29;20032;-76
2023/09/15 08:50:03;;;;;;;6.55;2.80;;;26.50;96.50;;;24.83;50.70;102161.84;4910255;29;20053;-76
2023/09/15 08:52:30;;;;;;;5.85;2.80;;;26.30;97.40;;;24.98;51.09;102153.31;4927014;29;20443;-75
2023/09/15 08:54:56;;;;;;;7.38;2.80;;;25.80;96.60;;;24.53;50.87;102149.97;4909872;29;20046;-76
2023/09/15 08:57:25;;;;;;;4.97;2.72;;;25.80;97.10;;;24.77;50.81;102156.00;4927066;29;20051;-76
2023/09/15 08:59:53;;;;;;;7.75;2.92;;;25.60;97.20;;;24.75;50.65;102151.72;4925096;29;20046;-76
2023/09/15 09:02:20;;;;;;;6.10;2.80;;;25.40;97.20;;;24.46;51.76;102154.13;4926776;29;20046;-76
2023/09/15 09:04:46;;;;;;;11.43;2.40;;;25.30;96.70;;;24.51;50.10;102158.19;4929020;29;20036;-76
2023/09/15 09:07:23;;;;;;;5.05;2.13;;;25.20;97.60;;;24.49;50.86;102156.59;4908814;29;20096;-76
2023/09/15 09:10:01;;;;;;;4.63;2.15;;;24.90;97.80;;;23.99;52.32;102145.44;4908701;29;20112;-76
2023/09/15 09:12:27;;;;;;;4.95;2.17;;;24.70;98.80;;;23.83;52.62;102135.06;4911638;29;20047;-76
2023/09/15 09:14:56;;;;;;;6.53;2.22;;;24.50;98.70;;;23.54;52.91;102135.53;4879041;29;20032;-75
2023/09/15 09:17:28;;;;;;;5.60;2.40;;;24.30;99.20;;;23.36;53.37;102137.00;4913206;29;20047;-76
2023/09/15 09:19:57;;;;;;;4.28;2.38;;;24.10;99.30;;;23.02;54.29;102124.34;4894185;29;20040;-77
2023/09/15 09:22:25;;;;;;;4.72;2.50;;;24.00;99.90;;;22.99;54.98;102121.88;4913489;29;20047;-77
2023/09/15 09:24:59;;;;;;;5.25;2.33;;;23.90;99.90;;;23.10;55.58;102113.88;4897082;29;20101;-76
2023/09/15 09:27:40;;;;;;;4.68;2.28;;;23.70;99.90;;;22.70;55.23;102105.34;4896475;29;20040;-76
2023/09/15 09:30:10;;;;;;;5.32;2.80;;;23.70;99.90;;;22.80;55.21;102103.63;4896120;29;20132;-77
2023/09/15 09:32:44;;;;;;;7.55;2.53;;;23.70;99.90;;;22.82;55.86;102112.44;4895626;29;21350;-77
2023/09/15 09:35:13;;;;;;;4.20;2.33;;;23.60;99.90;;;22.71;56.21;102107.03;4895387;29;20048;-77
2023/09/15 09:37:45;;;;;;;5.45;2.50;;;23.50;99.90;;;22.45;55.32;102112.53;4881018;29;20126;-78
2023/09/15 09:40:12;;;;;;;5.03;2.53;;;23.40;99.90;;;22.46;56.29;102099.97;4880489;29;20032;-77
2023/09/15 09:42:48;;;;;;;5.43;2.35;;;23.40;99.90;;;22.55;56.01;102096.63;4896748;29;20056;-76
2023/09/15 09:45:45;;;;;;;6.10;2.53;;;23.40;99.90;;;22.73;55.87;102097.88;4896098;29;20039;-77
2023/09/15 09:48:17;;;;;;;3.60;2.20;;;23.40;99.90;;;22.60;56.60;102089.06;4903091;29;20387;-76
2023/09/15 09:50:51;;;;;;;6.20;2.40;;;23.50;99.90;;;22.01;55.91;102080.94;4897289;29;20048;-76
2023/09/15 09:54:05;;;;;;;;;;;;;;;;;;;;;
2023/09/15 09:56:34;;;;;;;6.63;2.38;;;23.00;99.90;;;21.90;55.97;102077.25;4837717;29;20425;-76
2023/09/15 09:59:11;;;;;;;5.55;2.00;;;22.90;99.90;;;21.88;55.00;102070.28;4838143;29;20034;-76
2023/09/15 10:01:39;;;;;;;6.70;2.53;;;23.00;99.90;;;22.25;56.48;102068.44;4837319;29;20042;-76
2023/09/15 10:04:11;;;;;;;9.27;2.40;;;23.10;99.90;;;22.46;56.26;102060.59;4857625;29;20051;-76
2023/09/15 10:06:37;;;;;;;6.97;2.33;;;23.20;99.90;;;22.42;55.03;102063.59;4854398;29;20100;-77
2023/09/15 10:09:13;;;;;;;4.53;2.25;;;23.20;99.90;;;22.39;55.82;102070.06;4855382;29;20731;-76
2023/09/15 10:11:39;;;;;;;7.55;2.45;;;23.20;99.90;;;22.44;56.30;102062.53;4857792;29;20181;-76
2023/09/15 10:14:06;;;;;;;4.07;2.28;;;23.10;99.90;;;21.92;57.29;102051.19;4856385;29;20053;-76
2023/09/15 10:16:33;;;;;;;4.60;2.05;;;22.90;99.90;;;21.79;58.15;102052.16;4857717;29;20033;-76
2023/09/15 10:19:06;;;;;;;5.18;2.45;;;23.00;99.90;;;22.16;57.81;102049.44;4852789;29;20556;-76